Terminal Aerodrome Forecast
Issued by NWS Austin/San Antonio, TX

Home | Current Version | Previous Version | Text Only | Print | Product List | Glossary On
Versions: 1 2 3 4 5 6 7 8 9 10 11 12 13 14 15 16 17
000
FTUS44 KEWX 302339
TAFAUS
TAF
KAUS 302339Z 3100/0106 16007KT P6SM FEW040 SCT250
     FM310500 18006KT P6SM BKN010
     FM310700 19006KT P6SM OVC007
     FM311100 18006KT P6SM OVC012
     FM311600 19012KT P6SM OVC022
     FM312100 18014KT P6SM BKN035
     FM010400 17006KT P6SM BKN012=

USA.gov is the U.S. government's official web portal to all federal, state and local government web resources and services.